createdAt,value
2023-05-07T00:03:40.508Z,3.35
2023-05-07T00:08:39.337Z,2.35
2023-05-07T00:13:38.050Z,1.98
2023-05-07T00:18:38.141Z,2.95
2023-05-07T00:23:36.814Z,2.92
2023-05-07T00:28:35.567Z,2.80
2023-05-07T00:33:34.280Z,3.10
2023-05-07T00:38:34.421Z,2.53
2023-05-07T00:43:34.262Z,2.85
2023-05-07T00:48:33.881Z,2.70
2023-05-07T00:53:34.381Z,3.83
2023-05-07T00:58:33.233Z,3.58
2023-05-07T01:03:32.026Z,4.47
2023-05-07T01:08:33.705Z,3.35
2023-05-07T01:13:34.044Z,4.70
2023-05-07T01:18:33.676Z,3.53
2023-05-07T01:23:36.374Z,4.10
2023-05-07T01:28:35.106Z,4.10
2023-05-07T01:33:37.368Z,4.60
2023-05-07T01:38:39.869Z,3.42
2023-05-07T01:43:39.018Z,4.32
2023-05-07T01:48:38.089Z,3.67
2023-05-07T01:53:39.957Z,3.85
2023-05-07T01:58:39.175Z,3.05
2023-05-07T02:03:38.091Z,3.33
2023-05-07T02:08:45.297Z,3.58
2023-05-07T02:13:46.043Z,3.13
2023-05-07T02:18:44.895Z,2.92
2023-05-07T02:23:45.111Z,3.65
2023-05-07T02:28:44.002Z,3.45
2023-05-07T02:33:43.101Z,4.28
2023-05-07T02:38:42.334Z,4.60
2023-05-07T02:43:42.518Z,3.72
2023-05-07T02:48:42.560Z,4.20
2023-05-07T02:53:41.408Z,4.25
2023-05-07T02:58:40.605Z,4.10
2023-05-07T03:03:42.267Z,3.92
2023-05-07T03:08:41.040Z,3.92
2023-05-07T03:13:39.820Z,4.60
2023-05-07T03:18:38.654Z,4.20
2023-05-07T03:23:39.308Z,3.85
2023-05-07T03:28:38.976Z,4.10
2023-05-07T03:33:53.010Z,3.65
2023-05-07T03:38:53.171Z,3.80
2023-05-07T03:43:55.293Z,3.90
2023-05-07T03:48:54.174Z,5.30
2023-05-07T03:53:54.807Z,17.60
2023-05-07T03:58:54.985Z,9.55
2023-05-07T04:03:53.990Z,8.57
2023-05-07T04:08:54.565Z,5.32
2023-05-07T04:13:53.630Z,5.20
2023-05-07T04:18:55.901Z,5.00
2023-05-07T04:23:56.409Z,4.75
2023-05-07T04:28:56.134Z,5.38
2023-05-07T04:33:55.045Z,6.63
2023-05-07T04:38:54.111Z,4.45
2023-05-07T04:43:54.229Z,4.07
2023-05-07T04:48:55.435Z,4.03
2023-05-07T04:53:54.296Z,3.83
2023-05-07T04:58:54.880Z,3.83
2023-05-07T05:03:54.400Z,3.35
2023-05-07T05:08:53.396Z,3.42
2023-05-07T05:13:54.404Z,3.58
2023-05-07T05:18:55.204Z,4.03
2023-05-07T05:23:54.199Z,3.65
2023-05-07T05:28:57.628Z,5.60
2023-05-07T05:33:58.850Z,3.80
2023-05-07T05:38:57.953Z,3.67
2023-05-07T05:43:58.226Z,4.10
2023-05-07T05:49:00.489Z,4.40
2023-05-07T05:53:59.423Z,4.32
2023-05-07T05:59:02.233Z,3.45
2023-05-07T06:04:01.793Z,5.60
2023-05-07T06:09:01.789Z,3.30
2023-05-07T06:14:09.426Z,2.90
2023-05-07T06:19:09.038Z,4.20
2023-05-07T06:24:08.464Z,6.65
2023-05-07T06:29:11.143Z,4.27
2023-05-07T06:34:15.444Z,2.92
2023-05-07T06:39:14.910Z,2.55
2023-05-07T06:44:15.208Z,2.40
2023-05-07T06:49:17.732Z,2.05
2023-05-07T06:54:17.625Z,3.60
2023-05-07T06:59:18.377Z,2.25
2023-05-07T07:04:17.232Z,1.95
2023-05-07T07:09:20.691Z,1.73
2023-05-07T07:14:22.110Z,1.85
2023-05-07T07:19:23.620Z,2.22
2023-05-07T07:24:25.289Z,2.87
2023-05-07T07:29:29.876Z,2.53
2023-05-07T07:34:28.584Z,2.47
2023-05-07T07:39:27.952Z,3.00
2023-05-07T07:44:30.772Z,8.35
2023-05-07T07:49:34.325Z,18.77
2023-05-07T07:54:36.762Z,4.00
2023-05-07T07:59:38.663Z,3.50
2023-05-07T08:04:38.655Z,3.35
2023-05-07T08:09:40.063Z,1.67
2023-05-07T08:14:40.812Z,2.00
2023-05-07T08:19:40.399Z,1.70
2023-05-07T08:24:42.854Z,2.60
2023-05-07T08:29:48.452Z,2.10
2023-05-07T08:34:48.454Z,1.55
2023-05-07T08:39:47.496Z,2.00
2023-05-07T08:44:55.522Z,1.60
2023-05-07T08:49:56.702Z,1.92
2023-05-07T08:54:56.657Z,1.80
2023-05-07T08:59:58.947Z,1.30
2023-05-07T09:04:58.033Z,1.33
2023-05-07T09:09:58.120Z,1.00
2023-05-07T09:19:58.402Z,1.20
2023-05-07T09:24:57.330Z,0.90
2023-05-07T09:30:00.539Z,0.75
2023-05-07T09:34:59.327Z,1.00
2023-05-07T09:39:59.344Z,1.20
2023-05-07T09:45:01.450Z,1.10
2023-05-07T09:50:10.543Z,1.33
2023-05-07T09:55:11.662Z,1.30
2023-05-07T10:00:13.298Z,1.30
2023-05-07T10:05:21.767Z,1.25
2023-05-07T10:10:22.118Z,0.90
2023-05-07T10:15:22.429Z,1.70
2023-05-07T10:20:25.752Z,1.27
2023-05-07T10:25:32.127Z,1.08
2023-05-07T10:30:48.720Z,1.10
2023-05-07T10:35:49.884Z,1.10
2023-05-07T10:40:49.043Z,1.10
2023-05-07T10:46:19.102Z,1.13
2023-05-07T10:51:24.520Z,1.00
2023-05-07T10:56:39.031Z,1.35
2023-05-07T11:01:56.215Z,1.45
2023-05-07T11:07:39.038Z,1.10
2023-05-07T11:13:05.077Z,1.13
2023-05-07T11:18:14.056Z,1.20
2023-05-07T11:24:09.643Z,1.02
2023-05-07T11:29:24.118Z,2.58
2023-05-07T11:34:31.292Z,1.45
2023-05-07T11:39:33.971Z,1.13
2023-05-07T11:44:47.704Z,1.30
2023-05-07T11:49:49.011Z,1.27
2023-05-07T11:54:51.850Z,1.30
2023-05-07T11:59:55.210Z,1.50
2023-05-07T12:04:54.543Z,1.63
2023-05-07T12:09:54.151Z,1.58
2023-05-07T12:14:54.653Z,1.23
2023-05-07T12:19:54.496Z,1.48
2023-05-07T12:25:00.215Z,1.20
2023-05-07T12:30:00.919Z,1.17
2023-05-07T12:34:59.632Z,1.20
2023-05-07T12:40:08.450Z,1.38
2023-05-07T12:50:11.286Z,1.50
2023-05-07T12:55:11.395Z,1.58
2023-05-07T13:00:12.891Z,1.63
2023-05-07T13:05:11.658Z,1.13
2023-05-07T13:10:11.601Z,1.60
2023-05-07T13:15:12.413Z,1.20
2023-05-07T13:20:12.477Z,1.65
2023-05-07T13:25:11.935Z,1.25
2023-05-07T13:30:12.568Z,1.05
2023-05-07T13:35:11.563Z,1.58
2023-05-07T13:40:11.648Z,1.13
2023-05-07T13:45:15.132Z,1.85
2023-05-07T13:50:15.211Z,1.55
2023-05-07T13:55:14.072Z,1.58
2023-05-07T14:00:15.510Z,1.48
2023-05-07T14:05:14.679Z,1.60
2023-05-07T14:10:14.550Z,1.55
2023-05-07T14:15:16.197Z,1.73
2023-05-07T14:20:15.245Z,1.70
2023-05-07T14:25:14.609Z,1.60
2023-05-07T14:30:18.000Z,1.33
2023-05-07T14:35:16.741Z,1.50
2023-05-07T14:40:15.811Z,1.60
2023-05-07T14:45:16.629Z,1.50
2023-05-07T14:50:15.314Z,2.22
2023-05-07T14:55:14.520Z,1.95
2023-05-07T15:05:15.648Z,2.05
2023-05-07T15:10:14.340Z,1.77
2023-05-07T15:15:13.535Z,1.40
2023-05-07T15:20:13.914Z,1.70
2023-05-07T15:25:12.965Z,1.65
2023-05-07T15:30:13.414Z,1.65
2023-05-07T15:35:13.690Z,1.30
2023-05-07T15:40:13.383Z,1.25
2023-05-07T15:45:12.590Z,1.55
2023-05-07T15:50:13.388Z,2.28
2023-05-07T15:55:12.415Z,2.00
2023-05-07T16:00:12.897Z,2.08
2023-05-07T16:05:13.378Z,1.85
2023-05-07T16:10:14.923Z,1.92
2023-05-07T16:15:14.056Z,1.65
2023-05-07T16:20:15.452Z,1.10
2023-05-07T16:25:15.717Z,1.80
2023-05-07T16:30:14.734Z,1.65
2023-05-07T16:35:13.597Z,1.77
2023-05-07T16:40:13.412Z,1.50
2023-05-07T16:45:13.792Z,1.65
2023-05-07T16:50:12.876Z,1.63
2023-05-07T16:55:11.981Z,2.58
2023-05-07T17:00:11.927Z,2.13
2023-05-07T17:05:12.386Z,2.85
2023-05-07T17:10:11.930Z,2.28
2023-05-07T17:15:12.140Z,2.50
2023-05-07T17:20:14.126Z,3.10
2023-05-07T17:25:14.878Z,2.55
2023-05-07T17:30:15.483Z,1.90
2023-05-07T17:35:16.046Z,2.78
2023-05-07T17:40:15.462Z,4.03
2023-05-07T17:45:14.271Z,9.13
2023-05-07T17:50:14.438Z,10.85
2023-05-07T17:55:14.780Z,8.90
2023-05-07T18:00:14.819Z,8.50
2023-05-07T18:05:13.641Z,7.28
2023-05-07T18:10:12.884Z,6.72
2023-05-07T18:15:13.561Z,5.38
2023-05-07T18:20:13.083Z,5.47
2023-05-07T18:25:12.116Z,4.45
2023-05-07T18:30:13.401Z,4.18
2023-05-07T18:35:12.296Z,3.03
2023-05-07T18:40:11.986Z,2.28
2023-05-07T18:45:12.989Z,3.10
2023-05-07T18:50:12.464Z,3.05
2023-05-07T18:55:11.883Z,2.72
2023-05-07T19:00:13.579Z,2.55
2023-05-07T19:05:12.746Z,3.35
2023-05-07T19:10:11.777Z,2.15
2023-05-07T19:15:12.639Z,2.40
2023-05-07T19:20:12.326Z,2.50
2023-05-07T19:25:11.614Z,2.88
2023-05-07T19:30:12.482Z,2.47
2023-05-07T19:35:11.471Z,2.70
2023-05-07T19:40:11.384Z,2.85
2023-05-07T19:45:12.785Z,2.63
2023-05-07T19:50:12.603Z,2.08
2023-05-07T19:55:12.896Z,1.73
2023-05-07T20:00:16.909Z,2.33
2023-05-07T20:05:15.858Z,2.70
2023-05-07T20:10:14.722Z,2.00
2023-05-07T20:15:15.161Z,1.83
2023-05-07T20:20:14.463Z,2.03
2023-05-07T20:25:15.068Z,1.73
2023-05-07T20:30:15.738Z,2.25
2023-05-07T20:35:14.764Z,1.98
2023-05-07T20:40:14.278Z,2.05
2023-05-07T20:45:13.286Z,2.22
2023-05-07T20:50:13.739Z,1.42
2023-05-07T20:55:12.627Z,2.10
2023-05-07T21:00:12.051Z,2.30
2023-05-07T21:05:11.209Z,2.15
2023-05-07T21:10:12.139Z,2.03
2023-05-07T21:15:12.419Z,2.17
2023-05-07T21:20:11.698Z,1.70
2023-05-07T21:25:13.447Z,1.83
2023-05-07T21:30:14.037Z,1.42
2023-05-07T21:35:13.065Z,1.90
2023-05-07T21:40:14.324Z,1.85
2023-05-07T21:45:14.265Z,1.65
2023-05-07T21:50:13.419Z,1.50
2023-05-07T21:55:13.995Z,2.35
2023-05-07T22:00:14.148Z,1.77
2023-05-07T22:05:13.178Z,1.88
2023-05-07T22:10:13.512Z,1.40
2023-05-07T22:15:12.775Z,1.58
2023-05-07T22:20:12.695Z,1.65
2023-05-07T22:25:13.279Z,2.70
2023-05-07T22:30:12.503Z,2.55
2023-05-07T22:35:11.807Z,1.63
2023-05-07T22:40:11.585Z,1.67
2023-05-07T22:45:12.878Z,1.83
2023-05-07T22:50:12.921Z,1.60
2023-05-07T22:55:11.865Z,1.50
2023-05-07T23:00:13.946Z,1.90
2023-05-07T23:05:13.106Z,1.90
2023-05-07T23:10:12.327Z,2.05
2023-05-07T23:15:13.190Z,1.40
2023-05-07T23:20:13.740Z,1.70
2023-05-07T23:25:12.592Z,2.13
2023-05-07T23:30:14.312Z,1.52
2023-05-07T23:35:13.171Z,2.37
2023-05-07T23:40:12.183Z,1.50
2023-05-07T23:45:12.702Z,1.55
2023-05-07T23:50:12.193Z,1.55
2023-05-07T23:55:11.378Z,1.67
